Time;durP1;ratioP1;P1;durP2;ratioP2;P2;SDS_P1;SDS_P2;PMS_P1;PMS_P2;Temp;Humidity;BMP_temperature;BMP_pressure;BME280_temperature;BME280_humidity;BME280_pressure;Samples;Min_cycle;Max_cycle;Signal;HPM_P1;HPM_P2
2023/08/07 00:02:00;;;;;;;10.98;6.03;;;;;;;26.37;100.00;96503.84;5137207;28;20055;-63
2023/08/07 00:04:27;;;;;;;14.90;6.63;;;;;;;26.26;100.00;96490.00;5136985;28;20051;-61
2023/08/07 00:06:52;;;;;;;7.38;5.70;;;;;;;26.48;100.00;96491.69;5137080;28;20145;-63
2023/08/07 00:09:18;;;;;;;6.78;5.65;;;;;;;26.34;100.00;96498.56;5136177;27;20081;-61
2023/08/07 00:11:44;;;;;;;7.88;6.60;;;;;;;26.23;100.00;96496.69;5137006;28;20078;-61
2023/08/07 00:14:13;;;;;;;8.57;6.25;;;;;;;26.32;100.00;96496.28;5137149;28;20055;-61
2023/08/07 00:16:39;;;;;;;8.50;5.57;;;;;;;26.19;100.00;96488.59;5136911;28;20130;-60
2023/08/07 00:19:05;;;;;;;11.68;5.63;;;;;;;26.26;100.00;96493.56;5137208;28;20431;-62
2023/08/07 00:21:31;;;;;;;8.52;6.32;;;;;;;26.45;100.00;96487.13;5136746;28;20428;-62
2023/08/07 00:23:57;;;;;;;11.98;6.53;;;;;;;26.31;100.00;96491.19;5137153;28;20054;-61
2023/08/07 00:26:23;;;;;;;13.38;6.55;;;;;;;26.17;100.00;96467.94;5136668;28;20052;-62
2023/08/07 00:28:49;;;;;;;9.20;6.93;;;;;;;26.19;100.00;96485.00;5136566;28;20512;-63
2023/08/07 00:31:15;;;;;;;13.98;6.68;;;;;;;26.16;100.00;96478.44;5136821;28;20200;-63
2023/08/07 00:33:41;;;;;;;10.13;5.72;;;;;;;26.23;100.00;96463.75;5136819;28;20059;-61
2023/08/07 00:36:07;;;;;;;13.98;5.82;;;;;;;26.01;100.00;96467.69;5136851;28;20067;-61
2023/08/07 00:38:33;;;;;;;8.80;5.13;;;;;;;25.99;100.00;96464.66;5136726;27;20051;-60
2023/08/07 00:40:59;;;;;;;8.43;5.85;;;;;;;26.11;100.00;96468.03;5136867;28;20151;-61
2023/08/07 00:43:25;;;;;;;14.93;6.20;;;;;;;26.18;100.00;96463.84;5136551;28;20111;-61
2023/08/07 00:45:51;;;;;;;8.68;6.07;;;;;;;26.11;100.00;96468.03;5136835;28;20114;-63
2023/08/07 00:48:17;;;;;;;10.05;7.45;;;;;;;26.05;100.00;96456.88;5136453;28;20047;-60
2023/08/07 00:50:46;;;;;;;11.38;5.38;;;;;;;26.02;100.00;96468.44;5136664;28;20083;-62
2023/08/07 00:53:12;;;;;;;7.95;5.97;;;;;;;25.92;100.00;96450.47;5136391;28;20101;-63
2023/08/07 00:55:38;;;;;;;8.43;6.18;;;;;;;25.97;100.00;96466.47;5136808;28;20400;-63
2023/08/07 00:58:04;;;;;;;8.80;5.43;;;;;;;26.11;100.00;96456.06;5136699;27;20054;-64
2023/08/07 01:00:30;;;;;;;12.27;6.88;;;;;;;25.92;100.00;96450.47;5140015;28;20047;-63
2023/08/07 01:02:57;;;;;;;11.68;5.30;;;;;;;25.79;100.00;96468.78;5139973;28;20142;-60
2023/08/07 01:05:24;;;;;;;17.48;6.35;;;;;;;25.73;100.00;96482.13;5139852;28;20111;-61
2023/08/07 01:07:54;;;;;;;10.90;5.75;;;;;;;25.76;100.00;96486.66;5139944;27;20161;-61
2023/08/07 01:10:24;;;;;;;12.07;6.07;;;;;;;25.75;100.00;96490.75;5139657;28;20065;-59
2023/08/07 01:13:00;;;;;;;10.82;5.78;;;;;;;25.77;100.00;96487.41;5139853;28;20047;-60
2023/08/07 01:15:30;;;;;;;14.30;7.25;;;;;;;25.81;100.00;96493.50;5139585;28;20047;-64
2023/08/07 01:17:57;;;;;;;9.50;6.15;;;;;;;25.66;100.00;96519.22;5139870;28;20044;-62
2023/08/07 01:20:23;;;;;;;8.27;5.93;;;;;;;25.55;100.00;96511.69;5139455;28;20204;-63
2023/08/07 01:22:50;;;;;;;12.02;6.90;;;;;;;25.68;100.00;96502.59;5139358;28;20055;-61
2023/08/07 01:25:16;;;;;;;14.38;7.47;;;;;;;25.49;100.00;96547.50;5139644;28;20538;-61
2023/08/07 01:27:50;;;;;;;17.00;5.97;;;;;;;25.46;100.00;96554.16;5139548;28;20145;-59
2023/08/07 01:30:26;;;;;;;9.35;6.05;;;;;;;25.57;100.00;96559.59;5139396;28;20059;-59
2023/08/07 01:32:59;;;;;;;7.88;5.82;;;;;;;25.77;100.00;96527.47;5139325;28;20252;-63
2023/08/07 01:35:29;;;;;;;10.52;7.78;;;;;;;25.60;100.00;96552.19;5139509;28;20051;-61
2023/08/07 01:37:58;;;;;;;14.82;6.75;;;;;;;25.70;100.00;96530.13;5139121;27;20140;-60
2023/08/07 01:40:24;;;;;;;11.57;7.30;;;;;;;25.32;100.00;96566.53;5139149;28;20192;-60
2023/08/07 01:42:51;;;;;;;8.35;6.90;;;;;;;25.54;100.00;96590.78;5139053;28;20051;-60
2023/08/07 01:45:23;;;;;;;11.77;6.63;;;;;;;25.48;100.00;96595.69;5139464;28;20134;-63
2023/08/07 01:47:49;;;;;;;13.20;6.20;;;;;;;25.65;100.00;96579.41;5139278;28;20142;-62
2023/08/07 01:50:15;;;;;;;8.77;6.22;;;;;;;25.57;100.00;96567.28;5139083;28;20169;-63
2023/08/07 01:52:40;;;;;;;9.20;6.30;;;;;;;25.55;100.00;96564.22;5139472;28;20054;-64
2023/08/07 01:55:08;;;;;;;12.57;8.35;;;;;;;25.50;100.00;96574.25;5138838;28;20328;-63
2023/08/07 01:57:34;;;;;;;10.45;7.82;;;;;;;25.54;100.00;96568.31;5139219;28;20133;-63
2023/08/07 02:00:00;;;;;;;12.80;6.88;;;;;;;25.59;100.00;96556.25;5138884;28;20314;-61
2023/08/07 02:02:26;;;;;;;9.05;7.72;;;;;;;25.46;100.00;96565.38;5139164;28;20130;-60
2023/08/07 02:04:52;;;;;;;9.05;7.45;;;;;;;25.44;100.00;96621.22;5138770;28;20562;-59
2023/08/07 02:07:17;;;;;;;10.00;6.70;;;;;;;25.49;100.00;96583.94;5139137;27;20321;-60
2023/08/07 02:09:43;;;;;;;9.55;6.05;;;;;;;25.35;100.00;96597.09;5138083;27;20075;-61
2023/08/07 02:12:10;;;;;;;11.13;6.43;;;;;;;25.33;100.00;96582.09;5139121;28;20116;-62
2023/08/07 02:14:36;;;;;;;9.35;6.75;;;;;;;25.40;100.00;96575.13;5138582;28;20051;-62
2023/08/07 02:17:02;;;;;;;6.43;5.82;;;;;;;25.36;100.00;96553.00;5138766;28;20366;-62
2023/08/07 02:19:28;;;;;;;8.55;7.50;;;;;;;25.31;100.00;96573.44;5138780;28;20051;-62
2023/08/07 02:21:54;;;;;;;16.85;7.97;;;;;;;25.21;100.00;96578.66;5138398;28;20137;-62
2023/08/07 02:24:20;;;;;;;14.45;7.30;;;;;;;25.29;100.00;96607.63;5138736;28;20047;-59
2023/08/07 02:26:46;;;;;;;9.93;6.30;;;;;;;25.26;100.00;96596.72;5138288;28;20058;-61
2023/08/07 02:29:12;;;;;;;10.25;8.00;;;;;;;25.22;100.00;96607.44;5138574;28;20051;-62
2023/08/07 02:31:38;;;;;;;14.73;6.82;;;;;;;25.28;100.00;96588.53;5138307;28;20137;-60
2023/08/07 02:34:04;;;;;;;8.93;6.68;;;;;;;25.16;100.00;96613.13;5138673;28;20057;-62
2023/08/07 02:36:30;;;;;;;12.90;8.60;;;;;;;25.14;100.00;96637.34;5138183;28;20058;-64
2023/08/07 02:38:56;;;;;;;9.65;6.60;;;;;;;25.12;100.00;96637.88;5138536;27;20074;-64
2023/08/07 02:41:21;;;;;;;10.15;7.13;;;;;;;25.01;100.00;96688.41;5138149;28;20130;-63
2023/08/07 02:43:47;;;;;;;9.77;7.97;;;;;;;24.96;100.00;96675.19;5138520;28;20396;-62
2023/08/07 02:46:14;;;;;;;9.55;6.63;;;;;;;24.92;100.00;96714.72;5138355;28;20062;-63
2023/08/07 02:48:40;;;;;;;11.98;6.75;;;;;;;25.09;100.00;96697.75;5138216;28;20082;-62
2023/08/07 02:51:06;;;;;;;14.32;6.50;;;;;;;24.88;100.00;96677.81;5138165;28;20316;-63
2023/08/07 02:53:32;;;;;;;12.95;7.93;;;;;;;24.83;100.00;96699.00;5138145;28;20050;-61
2023/08/07 02:55:58;;;;;;;12.05;7.28;;;;;;;24.95;100.00;96684.88;5138246;28;20298;-59
2023/08/07 02:58:24;;;;;;;10.73;8.30;;;;;;;24.88;100.00;96684.16;5138009;28;20417;-58
2023/08/07 03:00:49;;;;;;;15.85;9.00;;;;;;;24.89;100.00;96694.13;5138220;28;20047;-59
2023/08/07 03:03:16;;;;;;;8.15;6.75;;;;;;;24.84;100.00;96699.75;5137840;28;20047;-60
2023/08/07 03:05:49;;;;;;;8.57;6.45;;;;;;;24.98;100.00;96678.25;5138263;28;20137;-59
2023/08/07 03:08:15;;;;;;;12.18;7.00;;;;;;;24.82;100.00;96663.06;5137635;27;20055;-61
2023/08/07 03:10:41;;;;;;;9.20;6.75;;;;;;;24.88;100.00;96703.78;5138167;28;20078;-62
2023/08/07 03:13:08;;;;;;;9.57;8.25;;;;;;;24.82;100.00;96658.22;5137831;28;20062;-61
2023/08/07 03:15:33;;;;;;;10.13;8.07;;;;;;;25.18;100.00;96601.38;5137763;28;20051;-60
2023/08/07 03:17:59;;;;;;;15.18;8.07;;;;;;;25.15;100.00;96580.00;5137894;28;20366;-61
2023/08/07 03:20:26;;;;;;;10.15;6.32;;;;;;;24.99;100.00;96567.63;5137275;27;20133;-62
2023/08/07 03:22:52;;;;;;;9.88;6.47;;;;;;;25.39;100.00;96525.94;5137222;28;20057;-61
2023/08/07 03:25:18;;;;;;;9.77;7.57;;;;;;;25.28;100.00;96518.41;5137364;28;20385;-62
2023/08/07 03:27:44;;;;;;;11.95;8.10;;;;;;;25.33;100.00;96515.56;5137885;28;20138;-61
2023/08/07 03:30:11;;;;;;;8.85;6.60;;;;;;;25.33;100.00;96509.94;5137297;28;20496;-59
2023/08/07 03:32:37;;;;;;;8.20;6.57;;;;;;;25.42;100.00;96474.38;5137683;28;20308;-63
2023/08/07 03:35:03;;;;;;;8.27;6.53;;;;;;;25.59;100.00;96472.09;5137365;28;20079;-62
2023/08/07 03:37:30;;;;;;;12.45;7.93;;;;;;;25.75;100.00;96419.84;5137634;27;20047;-62
2023/08/07 03:39:56;;;;;;;7.20;6.47;;;;;;;25.69;100.00;96419.16;5137216;28;20184;-61
2023/08/07 03:42:22;;;;;;;10.95;5.88;;;;;;;25.89;100.00;96415.84;5137164;28;20425;-63
2023/08/07 03:44:48;;;;;;;8.90;6.05;;;;;;;25.94;100.00;96406.56;5137467;28;20047;-63
2023/08/07 03:47:14;;;;;;;9.80;6.50;;;;;;;26.11;100.00;96400.66;5137354;28;20147;-63
2023/08/07 03:49:40;;;;;;;10.77;6.43;;;;;;;25.95;100.00;96407.31;5137208;28;20436;-60
2023/08/07 03:52:06;;;;;;;11.20;6.07;;;;;;;25.69;100.00;96405.16;5137043;28;20051;-59
2023/08/07 03:54:33;;;;;;;7.50;6.40;;;;;;;26.02;100.00;96404.66;5137436;28;20126;-60
2023/08/07 03:56:59;;;;;;;8.98;7.60;;;;;;;26.38;100.00;96390.22;5137180;28;20115;-59
2023/08/07 03:59:25;;;;;;;8.43;6.53;;;;;;;26.42;100.00;96404.69;5136930;28;20082;-60
2023/08/07 04:01:51;;;;;;;8.63;5.72;;;;;;;26.95;100.00;96448.91;5136955;28;20057;-62
2023/08/07 04:04:16;;;;;;;7.90;7.13;;;;;;;26.85;100.00;96440.16;5137379;28;20138;-61
2023/08/07 04:06:43;;;;;;;6.32;5.68;;;;;;;26.74;100.00;96421.47;5137002;28;20171;-63
2023/08/07 04:09:10;;;;;;;7.88;7.10;;;;;;;26.95;100.00;96415.19;5137344;27;20078;-63
2023/08/07 04:11:36;;;;;;;9.30;6.47;;;;;;;27.54;100.00;96483.25;5136800;28;20146;-62
2023/08/07 04:14:03;;;;;;;9.18;7.07;;;;;;;27.32;100.00;96490.09;5136913;28;20495;-63
2023/08/07 04:16:31;;;;;;;9.48;6.57;;;;;;;27.98;100.00;96533.47;5137115;28;20051;-61
2023/08/07 04:18:57;;;;;;;10.82;6.93;;;;;;;27.93;100.00;96557.66;5136938;28;20078;-64
2023/08/07 04:21:22;;;;;;;8.35;6.88;;;;;;;27.74;100.00;96583.13;5137072;28;20070;-63
2023/08/07 04:23:48;;;;;;;9.55;7.28;;;;;;;27.74;100.00;96545.78;5136673;28;20047;-61
2023/08/07 04:26:14;;;;;;;8.77;7.18;;;;;;;28.05;100.00;96603.22;5136874;28;20051;-59
2023/08/07 04:28:41;;;;;;;7.45;6.65;;;;;;;27.70;100.00;96560.19;5136626;28;20051;-59
2023/08/07 04:31:08;;;;;;;7.97;6.70;;;;;;;28.04;100.00;96602.47;5136822;28;20047;-60
2023/08/07 04:33:34;;;;;;;7.05;6.45;;;;;;;27.94;100.00;96567.63;5139013;27;20428;-59
2023/08/07 04:36:00;;;;;;;8.65;6.70;;;;;;;28.04;100.00;96629.88;5140687;28;20047;-62
2023/08/07 04:38:26;;;;;;;6.07;5.50;;;;;;;27.92;100.00;96595.53;5139938;27;20404;-63
2023/08/07 04:40:52;;;;;;;10.57;6.68;;;;;;;28.18;100.00;96616.50;5140391;28;20062;-60
2023/08/07 04:43:20;;;;;;;9.57;7.00;;;;;;;28.36;100.00;96626.84;5140295;28;20082;-59
2023/08/07 04:45:46;;;;;;;7.47;6.55;;;;;;;28.41;100.00;96639.31;5139946;28;20362;-59
2023/08/07 04:48:13;;;;;;;9.20;6.35;;;;;;;28.85;100.00;96666.44;5139990;28;20070;-60
2023/08/07 04:50:39;;;;;;;7.93;6.47;;;;;;;29.10;100.00;96702.78;5139961;28;20103;-60
2023/08/07 04:53:05;;;;;;;10.63;6.60;;;;;;;29.54;100.00;96765.81;5140189;28;20320;-62
2023/08/07 04:55:32;;;;;;;7.88;6.07;;;;;;;28.69;100.00;96700.66;5139912;28;20391;-63
2023/08/07 04:57:58;;;;;;;10.50;6.40;;;;;;;28.82;100.00;96689.34;5140088;28;20130;-63
2023/08/07 05:00:24;;;;;;;7.53;5.82;;;;;;;29.00;100.00;96719.44;5139581;28;20436;-61
2023/08/07 05:02:51;;;;;;;9.07;6.40;;;;;;;29.52;100.00;96771.25;5140064;28;20142;-59
2023/08/07 05:05:18;;;;;;;8.07;6.40;;;;;;;29.41;100.00;96729.19;5139629;28;20051;-63
2023/08/07 05:07:44;;;;;;;11.98;6.60;;;;;;;29.84;100.00;96818.22;5139969;27;20489;-67
2023/08/07 05:10:10;;;;;;;9.13;6.20;;;;;;;29.55;100.00;96800.44;5139711;28;20079;-69
2023/08/07 05:12:36;;;;;;;10.27;6.13;;;;;;;29.86;100.00;96780.94;5139651;28;20043;-64
2023/08/07 05:15:02;;;;;;;8.05;6.22;;;;;;;29.41;100.00;96765.88;5139457;28;20431;-67
2023/08/07 05:17:28;;;;;;;9.68;6.13;;;;;;;29.32;100.00;96738.13;5139397;28;20047;-67
2023/08/07 05:19:54;;;;;;;11.05;6.60;;;;;;;29.10;100.00;96690.75;5139538;28;20054;-63
2023/08/07 05:22:20;;;;;;;12.57;6.28;;;;;;;29.64;100.00;96742.75;5139201;28;20047;-62
2023/08/07 05:24:48;;;;;;;7.68;6.35;;;;;;;29.29;100.00;96756.16;5139667;28;20082;-62
2023/08/07 05:27:14;;;;;;;8.77;6.05;;;;;;;30.05;100.00;96803.28;5139138;28;20047;-63
2023/08/07 05:29:43;;;;;;;7.18;6.30;;;;;;;30.29;100.00;96808.56;5139616;28;20153;-62
2023/08/07 05:32:09;;;;;;;12.05;6.35;;;;;;;29.99;100.00;96792.91;5139173;28;20046;-63
2023/08/07 05:34:35;;;;;;;10.38;6.05;;;;;;;30.04;100.00;96785.59;5139538;28;20107;-59
2023/08/07 05:37:03;;;;;;;11.50;6.55;;;;;;;30.06;100.00;96790.66;5138903;27;20047;-61
2023/08/07 05:39:29;;;;;;;8.13;6.28;;;;;;;29.68;100.00;96760.09;5139357;28;20090;-57
2023/08/07 05:41:57;;;;;;;9.68;6.00;;;;;;;29.99;100.00;96773.13;5138974;28;20393;-68
2023/08/07 05:44:23;;;;;;;11.80;6.45;;;;;;;30.50;100.00;96842.41;5137947;27;20431;-63
2023/08/07 05:46:49;;;;;;;6.97;6.28;;;;;;;30.38;100.00;96858.16;5139187;28;20146;-67
2023/08/07 05:49:15;;;;;;;9.15;6.43;;;;;;;31.14;100.00;96877.59;5138936;28;20047;-61
2023/08/07 05:51:42;;;;;;;9.82;6.00;;;;;;;29.43;100.00;96762.53;5139118;28;20070;-64
2023/08/07 05:54:08;;;;;;;8.85;6.22;;;;;;;29.34;100.00;96772.22;5138617;28;20158;-57
2023/08/07 05:56:34;;;;;;;7.95;5.93;;;;;;;28.84;100.00;96644.44;5139049;28;20079;-60
2023/08/07 05:59:00;;;;;;;11.52;6.57;;;;;;;28.91;100.00;96659.91;5138681;28;20062;-58
2023/08/07 06:01:30;;;;;;;8.00;5.93;;;;;;;28.75;100.00;96625.19;5138840;28;20323;-59
2023/08/07 06:03:56;;;;;;;7.93;5.80;;;;;;;29.45;100.00;96711.91;5138514;28;20055;-61
2023/08/07 06:06:23;;;;;;;10.73;5.97;;;;;;;29.37;100.00;96757.00;5138991;28;20054;-65
2023/08/07 06:08:48;;;;;;;12.93;6.10;;;;;;;30.29;100.00;96847.34;5138491;27;20055;-67
2023/08/07 06:11:15;;;;;;;9.90;6.05;;;;;;;30.81;100.00;96890.66;5138466;28;20093;-67
2023/08/07 06:13:41;;;;;;;8.90;6.18;;;;;;;30.24;100.00;96773.47;5138365;28;20062;-68
2023/08/07 06:16:07;;;;;;;10.95;6.15;;;;;;;30.13;100.00;96833.09;5138331;28;20456;-66
2023/08/07 06:18:33;;;;;;;9.43;6.45;;;;;;;29.42;100.00;96724.31;5138536;28;20153;-64
2023/08/07 06:21:00;;;;;;;10.48;6.20;;;;;;;28.70;100.00;96609.91;5138038;28;20087;-69
2023/08/07 06:23:26;;;;;;;9.15;6.50;;;;;;;28.78;100.00;96636.09;5138507;28;20141;-57
2023/08/07 06:25:52;;;;;;;7.78;6.25;;;;;;;27.77;100.00;96528.56;5138447;28;20146;-59
2023/08/07 06:28:18;;;;;;;10.65;6.78;;;;;;;27.89;100.00;96484.00;5138432;28;20059;-66
2023/08/07 06:30:44;;;;;;;9.13;6.60;;;;;;;27.26;100.00;96418.38;5137776;28;20051;-61
2023/08/07 06:33:10;;;;;;;7.60;6.82;;;;;;;27.36;100.00;96431.47;5138796;28;20074;-66
2023/08/07 06:35:38;;;;;;;7.40;6.70;;;;;;;27.14;100.00;96398.22;5138332;28;20480;-58
2023/08/07 06:38:04;;;;;;;7.13;6.05;;;;;;;27.44;100.00;96437.94;5138377;27;20059;-59
2023/08/07 06:40:30;;;;;;;8.30;6.53;;;;;;;27.64;100.00;96455.41;5138268;28;20053;-57
2023/08/07 06:42:55;;;;;;;9.32;6.07;;;;;;;27.53;100.00;96456.41;5137845;28;20098;-57
2023/08/07 06:45:22;;;;;;;10.93;6.22;;;;;;;27.14;100.00;96437.56;5137948;28;20138;-59
2023/08/07 06:47:48;;;;;;;7.95;6.63;;;;;;;27.07;100.00;96365.84;5137940;28;20043;-58
2023/08/07 06:50:14;;;;;;;11.98;6.65;;;;;;;27.21;100.00;96420.03;5137913;28;20118;-59
2023/08/07 06:52:41;;;;;;;8.10;6.35;;;;;;;27.37;100.00;96441.41;5137759;28;20089;-57
2023/08/07 06:55:07;;;;;;;12.02;6.25;;;;;;;26.88;100.00;96393.34;5137939;27;20082;-61
2023/08/07 06:57:33;;;;;;;7.97;6.03;;;;;;;26.92;100.00;96355.16;5137366;28;20051;-59
2023/08/07 06:59:59;;;;;;;11.80;5.20;;;;;;;27.24;100.00;96421.75;5137603;28;20325;-61
2023/08/07 07:02:26;;;;;;;8.43;6.40;;;;;;;27.15;100.00;96371.59;5137634;28;20134;-63
2023/08/07 07:04:51;;;;;;;10.45;6.70;;;;;;;27.17;100.00;96375.38;5138013;28;20130;-63
2023/08/07 07:07:17;;;;;;;9.48;6.35;;;;;;;27.44;100.00;96420.31;5137459;27;20051;-62
2023/08/07 07:09:43;;;;;;;7.32;6.40;;;;;;;27.67;100.00;96504.97;5137523;28;20452;-63
2023/08/07 07:12:09;;;;;;;7.65;6.50;;;;;;;27.58;100.00;96468.84;5137407;28;20051;-59
2023/08/07 07:14:35;;;;;;;20.05;6.72;;;;;;;27.40;100.00;96403.75;5137423;28;20062;-56
2023/08/07 07:17:01;;;;;;;6.03;5.50;;;;;;;27.32;100.00;96421.84;5137694;28;20050;-57
2023/08/07 07:19:28;;;;;;;9.63;6.47;;;;;;;27.01;100.00;96429.88;5137366;28;20333;-59
2023/08/07 07:21:54;;;;;;;9.65;6.35;;;;;;;27.35;100.00;96463.69;5137600;28;20101;-59
2023/08/07 07:24:20;;;;;;;8.63;6.38;;;;;;;27.62;100.00;96488.97;5137299;28;20078;-61
2023/08/07 07:26:45;;;;;;;10.63;6.07;;;;;;;28.80;100.00;96587.66;5137115;28;20405;-61
2023/08/07 07:29:11;;;;;;;15.65;5.80;;;;;;;28.98;100.00;96772.78;5137073;28;20057;-58
2023/08/07 07:31:37;;;;;;;6.15;5.57;;;;;;;29.02;100.00;96752.72;5137561;28;20138;-58
2023/08/07 07:34:03;;;;;;;12.07;6.32;;;;;;;28.29;100.00;96745.81;5137081;28;20065;-58
2023/08/07 07:36:30;;;;;;;10.85;6.55;;;;;;;28.48;100.00;96658.38;5137330;28;20085;-56
2023/08/07 07:38:56;;;;;;;7.85;6.32;;;;;;;27.44;100.00;96558.91;5137222;27;20138;-55
2023/08/07 07:41:23;;;;;;;8.68;5.97;;;;;;;27.47;100.00;96492.34;5137107;28;20079;-56
2023/08/07 07:43:49;;;;;;;11.25;5.57;;;;;;;27.64;100.00;96540.59;5137308;28;20207;-63
2023/08/07 07:46:14;;;;;;;11.02;6.20;;;;;;;27.74;100.00;96484.59;5137234;28;20427;-65
2023/08/07 07:48:40;;;;;;;8.48;6.32;;;;;;;27.89;100.00;96543.13;5137279;28;20043;-63
2023/08/07 07:51:06;;;;;;;16.63;7.40;;;;;;;27.49;100.00;96512.28;5136967;28;20055;-58
2023/08/07 07:53:33;;;;;;;13.25;7.13;;;;;;;27.09;100.00;96436.38;5137391;28;20407;-55
2023/08/07 07:55:59;;;;;;;8.95;6.60;;;;;;;27.60;100.00;96441.69;5137044;28;20061;-60
2023/08/07 07:58:25;;;;;;;11.55;6.80;;;;;;;27.61;100.00;96502.28;5137321;28;20058;-56
2023/08/07 08:00:53;;;;;;;12.73;7.10;;;;;;;27.45;100.00;96473.19;5136830;28;20086;-62
2023/08/07 08:03:20;;;;;;;10.80;6.95;;;;;;;27.67;100.00;96469.13;5136865;28;20363;-55
2023/08/07 08:05:46;;;;;;;15.60;6.63;;;;;;;27.83;100.00;96446.81;5136849;28;20051;-59
2023/08/07 08:08:12;;;;;;;9.80;6.45;;;;;;;27.90;100.00;96508.81;5138838;27;20055;-58
2023/08/07 08:10:39;;;;;;;10.30;7.00;;;;;;;28.77;100.00;96519.00;5140538;28;20093;-55
2023/08/07 08:13:05;;;;;;;11.70;6.55;;;;;;;28.33;100.00;96549.81;5140255;28;20074;-58
2023/08/07 08:15:31;;;;;;;8.05;6.75;;;;;;;27.78;100.00;96433.63;5140409;28;20066;-55
2023/08/07 08:17:56;;;;;;;9.25;6.43;;;;;;;27.78;100.00;96546.22;5140341;28;20078;-55
2023/08/07 08:20:22;;;;;;;9.40;6.65;;;;;;;27.61;100.00;96493.09;5140372;28;20062;-62
2023/08/07 08:22:48;;;;;;;11.88;6.07;;;;;;;27.66;100.00;96433.88;5140062;28;20051;-63
2023/08/07 08:25:14;;;;;;;17.13;6.53;;;;;;;27.14;100.00;96361.66;5140552;28;20133;-58
2023/08/07 08:27:41;;;;;;;12.60;7.03;;;;;;;26.88;100.00;96309.03;5140100;28;20428;-58
2023/08/07 08:30:08;;;;;;;9.48;6.88;;;;;;;26.99;100.00;96297.53;5140401;28;20055;-59
2023/08/07 08:32:34;;;;;;;9.23;6.25;;;;;;;26.64;100.00;96329.72;5139898;28;20439;-62
2023/08/07 08:35:00;;;;;;;7.93;6.47;;;;;;;26.02;100.00;96340.09;5139781;28;20043;-59
2023/08/07 08:37:29;;;;;;;19.80;7.63;;;;;;;26.15;100.00;96255.09;5139950;27;20047;-57
2023/08/07 08:39:54;;;;;;;13.32;7.55;;;;;;;25.16;100.00;96452.56;5139744;28;20417;-62
2023/08/07 08:42:20;;;;;;;14.18;7.55;;;;;;;25.04;100.00;96611.69;5140370;28;20054;-61
2023/08/07 08:44:52;;;;;;;10.98;6.82;;;;;;;25.20;100.00;96769.84;5139624;28;20043;-65
2023/08/07 08:47:18;;;;;;;16.02;7.97;;;;;;;25.05;100.00;97028.03;5139956;28;20047;-60
2023/08/07 08:49:48;;;;;;;16.55;8.90;;;;;;;24.90;100.00;97266.59;5139940;28;20527;-60
2023/08/07 08:52:14;;;;;;;10.88;8.20;;;;;;;24.79;100.00;97297.38;5140005;28;20504;-63
2023/08/07 08:54:40;;;;;;;12.40;7.97;;;;;;;24.80;100.00;97165.19;5139840;28;20142;-64
2023/08/07 08:57:06;;;;;;;8.15;7.38;;;;;;;24.72;100.00;97334.31;5140115;28;20047;-63
2023/08/07 08:59:33;;;;;;;14.73;10.30;;;;;;;24.71;100.00;97383.97;5139643;28;20051;-61
2023/08/07 09:02:00;;;;;;;18.73;8.13;;;;;;;24.32;100.00;97546.94;5139706;28;20055;-66
2023/08/07 09:04:26;;;;;;;13.40;11.50;;;;;;;24.46;100.00;97601.34;5139813;28;20145;-64
2023/08/07 09:06:52;;;;;;;13.13;11.25;;;;;;;24.35;100.00;97629.97;5139681;28;20051;-68
2023/08/07 09:09:21;;;;;;;29.98;11.60;;;;;;;24.16;100.00;97649.16;5139699;27;20078;-66
2023/08/07 09:11:47;;;;;;;20.40;12.02;;;;;;;23.83;100.00;97571.22;5139466;28;20055;-64
2023/08/07 09:14:22;;;;;;;26.70;12.95;;;;;;;23.15;100.00;97580.81;5139681;28;20466;-62
2023/08/07 09:16:50;;;;;;;23.90;13.32;;;;;;;23.37;100.00;97490.88;5139362;28;20043;-64
2023/08/07 09:19:16;;;;;;;23.80;14.75;;;;;;;23.44;100.00;97498.06;5138206;27;20374;-60
2023/08/07 09:21:42;;;;;;;25.25;15.52;;;;;;;23.58;100.00;97474.78;5139367;28;20051;-60
2023/08/07 09:24:09;;;;;;;23.52;14.57;;;;;;;23.65;100.00;97479.94;5139583;28;20410;-65
2023/08/07 09:26:35;;;;;;;27.15;15.25;;;;;;;23.46;100.00;97541.06;5138991;28;20078;-63
2023/08/07 09:29:02;;;;;;;22.25;18.92;;;;;;;23.26;100.00;97583.00;5139283;28;20104;-66
2023/08/07 09:31:30;;;;;;;24.40;14.80;;;;;;;23.44;100.00;97559.56;5139332;28;20054;-66
2023/08/07 09:34:01;;;;;;;26.10;16.17;;;;;;;23.48;100.00;97560.13;5139414;28;20047;-69
2023/08/07 09:36:30;;;;;;;26.60;14.40;;;;;;;23.25;100.00;97548.66;5139430;28;20054;-72
2023/08/07 09:38:56;;;;;;;30.25;17.42;;;;;;;23.41;100.00;97508.19;5139322;27;20050;-71
2023/08/07 09:41:22;;;;;;;29.00;16.95;;;;;;;23.35;100.00;97495.41;5139595;28;20084;-66
2023/08/07 09:43:48;;;;;;;22.10;15.13;;;;;;;23.18;100.00;97486.84;5139423;28;20099;-63
2023/08/07 09:46:14;;;;;;;21.17;16.00;;;;;;;23.13;100.00;97484.75;5139156;28;20336;-66
2023/08/07 09:48:40;;;;;;;27.55;16.80;;;;;;;23.09;100.00;97473.00;5139055;28;20082;-68
2023/08/07 09:51:06;;;;;;;26.92;16.70;;;;;;;23.18;100.00;97478.44;5139196;28;20051;-69
2023/08/07 09:53:33;;;;;;;25.58;16.52;;;;;;;23.27;100.00;97478.31;5138857;28;20458;-65
2023/08/07 09:56:00;;;;;;;25.50;16.05;;;;;;;23.00;100.00;97508.22;5138900;28;20435;-66
2023/08/07 09:58:26;;;;;;;29.42;16.33;;;;;;;23.05;100.00;97489.22;5138939;28;20134;-68
2023/08/07 10:00:53;;;;;;;22.20;15.52;;;;;;;23.02;100.00;97468.59;5136460;27;20514;-65
2023/08/07 10:03:19;;;;;;;23.63;15.75;;;;;;;22.91;100.00;97482.41;5138578;27;20058;-74
2023/08/07 10:05:45;;;;;;;26.02;17.95;;;;;;;22.91;100.00;97488.00;5138673;28;20051;-65
2023/08/07 10:08:12;;;;;;;24.83;16.92;;;;;;;22.85;100.00;97484.38;5137552;28;20055;-67
2023/08/07 10:10:39;;;;;;;25.05;15.77;;;;;;;22.83;100.00;97478.53;5137787;28;20050;-69
2023/08/07 10:13:05;;;;;;;22.02;15.55;;;;;;;22.77;100.00;97468.03;5137749;28;20343;-62
2023/08/07 10:15:33;;;;;;;25.13;14.77;;;;;;;22.84;100.00;97474.47;5137886;28;20047;-67
2023/08/07 10:17:59;;;;;;;18.63;13.70;;;;;;;22.96;100.00;97523.69;5138203;28;20051;-67
2023/08/07 10:20:27;;;;;;;21.27;13.57;;;;;;;23.15;100.00;97524.16;5137912;28;20047;-62
2023/08/07 10:22:56;;;;;;;23.77;15.75;;;;;;;23.07;100.00;97571.31;5138386;27;20380;-68
2023/08/07 10:25:24;;;;;;;25.50;14.20;;;;;;;22.96;100.00;97580.34;5136283;28;20174;-72
2023/08/07 10:27:54;;;;;;;29.52;15.77;;;;;;;23.00;100.00;97580.13;5138416;28;20137;-69
2023/08/07 10:30:22;;;;;;;22.58;14.10;;;;;;;22.92;100.00;97590.13;5136666;27;20099;-67
2023/08/07 10:32:48;;;;;;;19.42;11.95;;;;;;;22.68;100.00;97643.38;5135203;28;20050;-66
2023/08/07 10:35:24;;;;;;;16.35;10.88;;;;;;;22.54;100.00;97695.19;5136383;28;20070;-68
2023/08/07 10:37:52;;;;;;;16.85;10.05;;;;;;;22.42;100.00;97736.09;5137814;28;20084;-63
2023/08/07 10:40:20;;;;;;;20.85;10.88;;;;;;;22.26;100.00;97725.41;5137984;28;20054;-68
2023/08/07 10:42:56;;;;;;;16.95;10.38;;;;;;;22.19;100.00;97748.88;5137969;28;20092;-71
2023/08/07 10:45:23;;;;;;;19.38;10.75;;;;;;;21.53;100.00;97807.56;5137206;28;20115;-69
2023/08/07 10:48:11;;;;;;;35.90;11.27;;;;;;;21.19;100.00;97600.47;5136647;28;20332;-68
2023/08/07 10:50:50;;;;;;;17.27;8.15;;;;;;;19.95;100.00;97572.53;5137665;28;20156;-66
2023/08/07 10:53:20;;;;;;;17.75;5.72;;;;;;;19.22;100.00;97581.63;5137818;28;20051;-72
2023/08/07 10:55:47;;;;;;;20.48;6.03;;;;;;;19.05;100.00;97500.63;5138036;27;20047;-68
2023/08/07 10:58:29;;;;;;;13.15;9.80;;;;;;;18.93;100.00;97434.91;5137464;27;20051;-65
2023/08/07 11:01:17;;;;;;;15.05;5.95;;;;;;;18.75;100.00;97366.25;5137426;27;20047;-65
2023/08/07 11:03:44;;;;;;;9.07;5.38;;;;;;;18.63;100.00;97344.22;5134654;28;20047;-64
2023/08/07 11:06:10;;;;;;;14.07;8.82;;;;;;;18.90;100.00;97329.56;5137660;28;20051;-65
2023/08/07 11:08:36;;;;;;;8.70;6.13;;;;;;;18.76;100.00;97392.00;5137533;27;20054;-65
2023/08/07 11:11:04;;;;;;;7.82;4.50;;;;;;;18.42;100.00;97404.16;5137393;28;20138;-63
2023/08/07 11:13:31;;;;;;;18.58;7.55;;;;;;;18.18;100.00;97406.72;5137596;28;20163;-64
2023/08/07 11:15:57;;;;;;;12.30;4.72;;;;;;;18.05;100.00;97360.47;5137253;28;20133;-64
2023/08/07 11:18:23;;;;;;;5.20;4.55;;;;;;;17.89;100.00;97355.19;5137607;27;20054;-65